Time;durP1;ratioP1;P1;durP2;ratioP2;P2;SDS_P1;SDS_P2;PMS_P1;PMS_P2;Temp;Humidity;BMP_temperature;BMP_pressure;BME280_temperature;BME280_humidity;BME280_pressure;Samples;Min_cycle;Max_cycle;Signal;HPM_P1;HPM_P2
2023/04/26 00:01:41;;;;;;;7.28;3.58;;;;;;;10.93;61.66;94043.97;5046439;28;20033;-75
2023/04/26 00:04:07;;;;;;;5.05;3.42;;;;;;;10.96;61.95;94037.56;5047485;28;20388;-75
2023/04/26 00:06:33;;;;;;;4.60;3.50;;;;;;;11.00;61.97;94034.63;5046546;28;20457;-75
2023/04/26 00:08:59;;;;;;;9.80;3.78;;;;;;;11.03;62.01;94037.25;5046465;28;20025;-75
2023/04/26 00:11:24;;;;;;;6.75;3.75;;;;;;;11.02;62.65;94029.44;5046837;28;20029;-74
2023/04/26 00:13:50;;;;;;;5.35;3.72;;;;;;;11.02;63.34;94027.47;5044296;28;20452;-75
2023/04/26 00:16:17;;;;;;;6.75;3.97;;;;;;;11.05;63.56;94023.00;5045829;28;20108;-75
2023/04/26 00:18:43;;;;;;;5.70;4.05;;;;;;;11.02;63.45;94026.72;5047487;28;20519;-75
2023/04/26 00:21:09;;;;;;;7.05;3.75;;;;;;;11.00;63.66;94018.13;5046852;28;20119;-75
2023/04/26 00:23:35;;;;;;;6.45;3.95;;;;;;;10.96;63.81;94012.81;5046279;28;20427;-76
2023/04/26 00:26:01;;;;;;;5.35;4.10;;;;;;;10.94;63.97;94014.47;5046884;28;20056;-75
2023/04/26 00:28:28;;;;;;;6.55;3.72;;;;;;;10.85;63.86;94007.78;5046441;28;20198;-75
2023/04/26 00:30:56;;;;;;;6.68;3.75;;;;;;;10.89;63.73;94013.09;5045864;28;20029;-75
2023/04/26 00:33:25;;;;;;;5.80;3.67;;;;;;;10.88;63.82;94009.59;5045697;28;20151;-75
2023/04/26 00:35:50;;;;;;;6.13;3.72;;;;;;;10.88;63.95;94011.59;5044051;28;20036;-76
2023/04/26 00:38:16;;;;;;;7.20;4.40;;;;;;;10.83;63.79;94001.22;5046984;28;20021;-75
2023/04/26 00:40:42;;;;;;;7.72;3.58;;;;;;;10.85;63.77;94009.78;5044030;28;20032;-74
2023/04/26 00:43:07;;;;;;;7.05;3.75;;;;;;;10.81;63.68;94006.41;5045133;28;20028;-76
2023/04/26 00:45:33;;;;;;;5.60;4.05;;;;;;;10.80;63.66;94005.66;5045753;28;20056;-76
2023/04/26 00:48:00;;;;;;;6.18;3.45;;;;;;;10.75;63.61;94003.53;5044334;28;20021;-76
2023/04/26 00:50:26;;;;;;;6.13;3.95;;;;;;;10.73;63.58;94010.72;5028241;28;20017;-76
2023/04/26 00:52:54;;;;;;;7.35;4.05;;;;;;;10.69;63.61;94001.84;5044027;28;20017;-76
2023/04/26 00:55:21;;;;;;;5.18;4.00;;;;;;;10.66;63.59;94003.53;5052398;28;20040;-75
2023/04/26 00:57:46;;;;;;;6.53;3.90;;;;;;;10.62;64.10;94006.44;5044101;28;20328;-76
2023/04/26 01:00:12;;;;;;;8.02;4.47;;;;;;;10.57;64.10;94004.31;5044681;28;20096;-76
2023/04/26 01:02:37;;;;;;;5.38;3.75;;;;;;;10.53;64.08;94002.94;5043929;28;20028;-76
2023/04/26 01:05:05;;;;;;;6.78;4.40;;;;;;;10.52;64.39;94015.16;5045809;28;20031;-75
2023/04/26 01:07:31;;;;;;;6.65;3.92;;;;;;;10.47;64.32;94010.25;5045752;28;20049;-76
2023/04/26 01:09:57;;;;;;;6.88;4.57;;;;;;;10.45;64.63;94023.69;5027437;28;20059;-76
2023/04/26 01:12:23;;;;;;;7.95;4.75;;;;;;;10.44;64.56;94019.44;5046964;28;20025;-75
2023/04/26 01:14:48;;;;;;;8.80;5.03;;;;;;;10.36;64.76;94016.97;5026556;28;20476;-75
2023/04/26 01:17:14;;;;;;;5.68;4.35;;;;;;;10.33;64.40;94014.38;5044786;28;20112;-76
2023/04/26 01:19:49;;;;;;;6.93;4.47;;;;;;;10.20;64.35;94011.72;5044643;28;20442;-75
2023/04/26 01:22:15;;;;;;;6.05;4.65;;;;;;;10.07;64.81;93995.41;5045527;28;20025;-75
2023/04/26 01:24:42;;;;;;;7.20;4.65;;;;;;;10.13;65.01;93990.06;5045384;28;20083;-75
2023/04/26 01:27:08;;;;;;;6.25;3.97;;;;;;;10.16;65.05;93988.41;5043395;28;20040;-75
2023/04/26 01:29:34;;;;;;;6.65;4.88;;;;;;;10.20;64.99;94002.75;5045698;28;20029;-75
2023/04/26 01:32:00;;;;;;;8.30;4.63;;;;;;;10.15;64.86;93998.63;5042854;28;20040;-75
2023/04/26 01:34:25;;;;;;;7.30;4.90;;;;;;;10.16;64.74;94005.66;5043950;28;20426;-75
2023/04/26 01:36:51;;;;;;;5.90;4.57;;;;;;;10.12;64.96;94007.78;5044017;28;20040;-75
2023/04/26 01:39:16;;;;;;;8.18;4.78;;;;;;;10.11;64.75;94004.25;5045338;28;20104;-75
2023/04/26 01:41:41;;;;;;;7.35;4.55;;;;;;;10.14;64.81;94010.06;5026712;28;20032;-74
2023/04/26 01:44:07;;;;;;;8.00;5.53;;;;;;;10.08;64.92;94002.41;5045175;28;20122;-74
2023/04/26 01:46:32;;;;;;;7.28;4.68;;;;;;;10.14;64.91;94012.81;5044783;28;20071;-74
2023/04/26 01:48:58;;;;;;;7.50;4.88;;;;;;;10.10;65.00;94019.22;5043137;28;20070;-75
2023/04/26 01:51:23;;;;;;;9.75;5.55;;;;;;;10.14;64.98;94023.78;5027260;28;20037;-74
2023/04/26 01:53:48;;;;;;;7.68;5.32;;;;;;;10.10;64.97;94010.97;5043627;28;20384;-75
2023/04/26 01:56:14;;;;;;;8.30;6.53;;;;;;;10.10;64.78;94002.75;5043875;28;20514;-75
2023/04/26 01:58:40;;;;;;;8.63;5.55;;;;;;;10.13;64.90;94008.53;5043330;28;20040;-75
2023/04/26 02:01:07;;;;;;;9.18;5.60;;;;;;;10.13;65.21;94003.81;5051423;28;20049;-75
2023/04/26 02:03:32;;;;;;;7.75;5.45;;;;;;;10.16;65.11;94002.16;5043481;28;20106;-75
2023/04/26 02:05:58;;;;;;;8.68;6.10;;;;;;;10.18;65.09;93991.44;5028075;28;20083;-75
2023/04/26 02:08:23;;;;;;;6.65;4.95;;;;;;;10.17;65.37;93979.72;5045041;28;20104;-75
2023/04/26 02:10:49;;;;;;;8.73;5.38;;;;;;;10.18;65.28;93989.47;5042621;28;20032;-75
2023/04/26 02:13:14;;;;;;;7.03;5.55;;;;;;;10.18;65.00;93997.72;5044461;28;20523;-76
2023/04/26 02:15:40;;;;;;;6.38;4.75;;;;;;;10.16;64.43;93988.41;5041914;28;20036;-76
2023/04/26 02:18:06;;;;;;;8.63;4.82;;;;;;;10.12;63.44;93983.06;5045349;28;20029;-76
2023/04/26 02:20:31;;;;;;;7.88;4.20;;;;;;;10.08;63.07;93974.97;5043901;28;20021;-76
2023/04/26 02:22:57;;;;;;;5.95;4.35;;;;;;;10.06;63.04;93971.91;5044579;28;20083;-76
2023/04/26 02:25:23;;;;;;;8.93;4.28;;;;;;;10.02;62.92;93971.28;5043128;28;20108;-74
2023/04/26 02:27:49;;;;;;;9.45;4.00;;;;;;;9.99;62.81;93977.72;5042727;28;20446;-75
2023/04/26 02:30:14;;;;;;;7.43;3.83;;;;;;;10.00;62.75;93984.72;5045088;28;20048;-75
2023/04/26 02:32:40;;;;;;;8.25;3.90;;;;;;;9.97;62.97;93980.13;5041710;28;20029;-75
2023/04/26 02:35:05;;;;;;;7.63;4.05;;;;;;;9.97;62.89;93985.63;5045214;28;20025;-75
2023/04/26 02:37:32;;;;;;;6.10;4.00;;;;;;;9.99;63.13;93996.16;5043305;28;20037;-75
2023/04/26 02:39:57;;;;;;;10.95;4.20;;;;;;;9.98;63.38;93992.66;5043436;28;20075;-75
2023/04/26 02:42:23;;;;;;;8.43;4.03;;;;;;;10.01;63.25;93994.47;5043943;28;20442;-75
2023/04/26 02:44:49;;;;;;;7.25;4.50;;;;;;;10.01;63.31;93999.22;5045951;28;20487;-76
2023/04/26 02:47:15;;;;;;;8.00;3.72;;;;;;;9.99;63.19;93996.94;5048554;28;20048;-76
2023/04/26 02:49:40;;;;;;;6.63;3.67;;;;;;;10.00;63.21;93990.22;5047466;28;20025;-77
2023/04/26 02:52:06;;;;;;;6.22;3.28;;;;;;;9.99;63.40;93982.44;5047799;28;20013;-76
2023/04/26 02:54:31;;;;;;;5.28;3.28;;;;;;;10.02;63.52;93978.78;5028903;28;20017;-76
2023/04/26 02:56:57;;;;;;;4.88;3.38;;;;;;;10.02;63.59;93976.78;5048934;28;20096;-76
2023/04/26 02:59:23;;;;;;;11.70;3.72;;;;;;;10.00;63.84;93964.75;5029428;28;20025;-77
2023/04/26 03:01:48;;;;;;;7.30;4.10;;;;;;;10.07;63.58;93976.19;5047625;28;20472;-76
2023/04/26 03:04:14;;;;;;;7.10;3.50;;;;;;;10.08;63.53;93974.19;5050176;28;20018;-75
2023/04/26 03:06:40;;;;;;;4.82;3.70;;;;;;;10.07;63.49;93967.19;5054345;28;20036;-76
2023/04/26 03:09:05;;;;;;;6.13;3.75;;;;;;;10.04;63.89;93966.13;5046993;28;20029;-76
2023/04/26 03:11:31;;;;;;;6.55;3.95;;;;;;;10.05;63.73;93962.16;5046458;28;20411;-76
2023/04/26 03:13:56;;;;;;;11.38;3.90;;;;;;;10.04;63.79;93970.84;5048684;28;20104;-76
2023/04/26 03:16:22;;;;;;;7.53;3.80;;;;;;;10.07;63.72;93976.19;5046920;28;20106;-77
2023/04/26 03:18:48;;;;;;;6.97;3.58;;;;;;;10.07;63.97;93972.69;5048487;28;20509;-75
2023/04/26 03:21:13;;;;;;;6.88;3.78;;;;;;;10.05;63.88;93959.41;5046000;28;20024;-76
2023/04/26 03:23:39;;;;;;;4.75;3.65;;;;;;;10.07;64.06;93961.69;5047249;28;20554;-75
2023/04/26 03:26:04;;;;;;;7.93;3.85;;;;;;;10.08;64.10;93961.22;5047792;28;20032;-75
2023/04/26 03:28:30;;;;;;;6.07;4.15;;;;;;;10.09;64.18;93964.72;5047052;28;20024;-75
2023/04/26 03:30:55;;;;;;;8.50;3.95;;;;;;;10.10;63.99;93966.28;5048058;28;20145;-76
2023/04/26 03:33:20;;;;;;;5.72;3.80;;;;;;;10.12;63.99;93969.31;5046388;28;20029;-75
2023/04/26 03:35:46;;;;;;;8.02;5.10;;;;;;;10.09;64.09;93962.78;5046587;28;20028;-76
2023/04/26 03:38:12;;;;;;;6.15;4.35;;;;;;;10.07;64.01;93956.97;5045474;28;20025;-76
2023/04/26 03:40:37;;;;;;;8.45;5.18;;;;;;;10.10;63.96;93966.28;5047384;28;20507;-77
2023/04/26 03:43:02;;;;;;;10.68;6.30;;;;;;;10.06;64.08;93971.91;5045747;28;20375;-75
2023/04/26 03:45:28;;;;;;;6.55;4.55;;;;;;;10.14;64.19;93985.34;5045721;28;20021;-75
2023/04/26 03:47:53;;;;;;;5.78;4.40;;;;;;;10.15;64.14;93978.63;5046022;28;20032;-76
2023/04/26 03:50:19;;;;;;;5.30;3.72;;;;;;;10.02;64.33;93987.75;5045068;28;20029;-75
2023/04/26 03:52:44;;;;;;;6.63;4.22;;;;;;;10.01;64.45;93980.75;5047728;28;20025;-76
2023/04/26 03:55:10;;;;;;;6.45;4.55;;;;;;;10.02;64.38;93998.00;5046747;28;20108;-75
2023/04/26 03:57:36;;;;;;;6.90;4.20;;;;;;;10.01;64.16;93997.22;5050277;28;20033;-75
2023/04/26 04:00:07;;;;;;;6.80;4.60;;;;;;;9.94;64.60;93999.50;5044898;28;20107;-75
2023/04/26 04:02:32;;;;;;;7.50;4.50;;;;;;;10.00;64.53;94003.94;5045805;28;20029;-75
2023/04/26 04:04:58;;;;;;;6.07;4.55;;;;;;;10.05;64.31;94002.59;5045597;28;20478;-76
2023/04/26 04:07:23;;;;;;;9.10;4.63;;;;;;;10.08;64.28;93999.66;5046352;28;20053;-75
2023/04/26 04:09:49;;;;;;;6.47;4.78;;;;;;;10.13;64.35;94005.78;5052100;28;20021;-76
2023/04/26 04:12:14;;;;;;;9.18;5.43;;;;;;;10.19;64.18;94010.22;5045260;28;20496;-77
2023/04/26 04:14:40;;;;;;;7.75;5.18;;;;;;;10.21;64.28;94007.03;5045743;28;20104;-75
2023/04/26 04:17:06;;;;;;;9.75;5.07;;;;;;;10.29;64.10;94011.03;5045472;28;20033;-77
2023/04/26 04:19:31;;;;;;;8.10;4.88;;;;;;;10.30;63.88;94013.31;5045650;28;20123;-76
2023/04/26 04:21:57;;;;;;;9.88;5.32;;;;;;;10.37;63.99;94013.00;5044397;28;20494;-77
2023/04/26 04:24:22;;;;;;;8.63;5.40;;;;;;;10.41;63.81;94010.09;5044825;28;20029;-76
2023/04/26 04:26:47;;;;;;;8.30;5.63;;;;;;;10.41;63.83;94017.59;5046470;28;20471;-75
2023/04/26 04:29:13;;;;;;;6.22;5.18;;;;;;;10.43;63.90;94012.38;5045691;28;20033;-78
2023/04/26 04:31:38;;;;;;;7.80;5.07;;;;;;;10.51;63.56;94008.13;5046983;28;20021;-77
2023/04/26 04:34:04;;;;;;;8.23;4.65;;;;;;;10.62;63.41;94011.19;5043755;28;20501;-75
2023/04/26 04:36:30;;;;;;;5.72;4.88;;;;;;;10.66;63.23;94013.75;5045484;28;20107;-76
2023/04/26 04:38:56;;;;;;;8.80;5.15;;;;;;;10.75;62.93;94017.25;5043605;28;20105;-75
2023/04/26 04:41:22;;;;;;;5.95;4.65;;;;;;;10.81;62.61;94020.16;5046061;28;20143;-75
2023/04/26 04:43:47;;;;;;;6.05;4.55;;;;;;;10.84;62.62;94025.50;5028039;28;20036;-75
2023/04/26 04:46:13;;;;;;;9.52;5.10;;;;;;;10.93;62.70;94026.72;5044237;28;20016;-75
2023/04/26 04:48:38;;;;;;;7.18;4.75;;;;;;;10.97;62.56;94030.06;5047677;28;20021;-77
2023/04/26 04:51:05;;;;;;;7.18;4.80;;;;;;;11.05;62.25;94023.78;5043659;28;20069;-76
2023/04/26 04:53:30;;;;;;;6.72;4.50;;;;;;;11.15;61.94;94019.03;5046693;28;20196;-76
2023/04/26 04:55:56;;;;;;;9.98;4.50;;;;;;;11.15;61.91;94016.28;5044321;28;20025;-76
2023/04/26 04:58:21;;;;;;;4.63;3.53;;;;;;;11.23;61.76;94019.47;5045023;28;20025;-75
2023/04/26 05:00:47;;;;;;;4.45;3.35;;;;;;;11.13;61.64;94021.50;5045102;28;20120;-77
2023/04/26 05:03:13;;;;;;;4.60;3.17;;;;;;;11.17;61.13;94016.56;5044148;28;20587;-77
2023/04/26 05:05:39;;;;;;;4.18;3.30;;;;;;;11.24;61.19;94015.47;5045803;28;20433;-77
2023/04/26 05:08:06;;;;;;;6.00;3.40;;;;;;;11.29;60.90;94015.59;5043924;28;20024;-76
2023/04/26 05:10:32;;;;;;;4.05;3.10;;;;;;;11.39;60.50;94016.34;5045087;28;20075;-78
2023/04/26 05:12:58;;;;;;;5.22;3.15;;;;;;;11.46;60.24;94016.00;5044554;28;20032;-77
2023/04/26 05:15:23;;;;;;;4.93;3.80;;;;;;;11.47;60.45;94017.56;5037783;28;20457;-77
2023/04/26 05:17:48;;;;;;;5.28;3.50;;;;;;;11.52;60.13;94016.13;5043870;28;20578;-77
2023/04/26 05:20:14;;;;;;;4.15;3.67;;;;;;;11.61;59.85;94021.63;5044425;28;20017;-76
2023/04/26 05:22:40;;;;;;;4.22;3.50;;;;;;;11.66;59.83;94018.25;5045673;28;20021;-77
2023/04/26 05:25:07;;;;;;;4.90;3.60;;;;;;;11.80;59.52;94019.53;5026647;28;20446;-77
2023/04/26 05:27:32;;;;;;;6.18;3.65;;;;;;;11.87;59.46;94021.97;5044479;28;20034;-78
2023/04/26 05:29:59;;;;;;;7.88;3.70;;;;;;;11.98;59.10;94032.47;5026099;28;20016;-77
2023/04/26 05:32:25;;;;;;;6.88;4.00;;;;;;;12.06;59.34;94026.16;5027835;28;20403;-77
2023/04/26 05:34:51;;;;;;;4.45;3.53;;;;;;;12.16;59.23;94032.38;5042642;28;20028;-77
2023/04/26 05:37:16;;;;;;;5.75;4.10;;;;;;;12.25;59.17;94037.06;5045548;28;20025;-77
2023/04/26 05:39:42;;;;;;;6.65;3.65;;;;;;;12.32;58.83;94031.94;5043018;28;20562;-77
2023/04/26 05:42:08;;;;;;;6.25;4.10;;;;;;;12.40;58.84;94033.13;5044696;28;20025;-78
2023/04/26 05:44:33;;;;;;;4.95;3.78;;;;;;;12.40;58.71;94049.69;5046227;28;20075;-77
2023/04/26 05:46:59;;;;;;;5.20;3.75;;;;;;;12.44;58.49;94043.97;5026115;28;20032;-77
2023/04/26 05:49:25;;;;;;;6.03;3.70;;;;;;;12.51;58.42;94054.66;5045596;28;20029;-78
2023/04/26 05:51:50;;;;;;;5.78;4.03;;;;;;;12.49;58.48;94044.06;5042372;28;20033;-77
2023/04/26 05:54:16;;;;;;;5.28;4.15;;;;;;;12.61;58.12;94049.81;5045250;28;20510;-77
2023/04/26 05:56:41;;;;;;;6.57;4.68;;;;;;;12.67;58.18;94059.75;5043710;28;20496;-77
2023/04/26 05:59:07;;;;;;;7.75;4.50;;;;;;;12.61;58.73;94058.84;5043573;28;20033;-80
2023/04/26 06:01:32;;;;;;;6.43;4.20;;;;;;;12.64;59.02;94048.88;5043206;28;20110;-79
2023/04/26 06:03:58;;;;;;;5.25;4.45;;;;;;;12.74;58.75;94064.13;5044478;28;20024;-78
2023/04/26 06:06:23;;;;;;;9.20;4.88;;;;;;;12.79;58.93;94069.00;5044938;28;20029;-78
2023/04/26 06:08:49;;;;;;;7.00;4.38;;;;;;;12.61;58.63;94060.84;5042499;28;20021;-78
2023/04/26 06:11:14;;;;;;;5.90;4.00;;;;;;;12.79;58.67;94062.69;5027193;28;20560;-77
2023/04/26 06:13:39;;;;;;;5.78;4.20;;;;;;;12.90;58.75;94057.38;5043274;28;20037;-77
2023/04/26 06:16:05;;;;;;;8.15;4.85;;;;;;;13.00;58.77;94059.59;5043795;28;20029;-77
2023/04/26 06:18:31;;;;;;;7.90;4.75;;;;;;;13.08;58.39;94064.78;5042892;28;20111;-77
2023/04/26 06:20:56;;;;;;;5.55;3.95;;;;;;;13.16;58.15;94060.38;5051023;28;20154;-79
2023/04/26 06:23:21;;;;;;;6.15;4.38;;;;;;;13.20;58.19;94067.25;5027138;28;20029;-77
2023/04/26 06:25:47;;;;;;;5.75;4.43;;;;;;;13.16;57.97;94057.63;5044179;28;20411;-79
2023/04/26 06:28:12;;;;;;;5.72;4.45;;;;;;;13.24;57.37;94067.84;5044781;28;20407;-78
2023/04/26 06:30:38;;;;;;;4.75;4.20;;;;;;;13.31;57.36;94057.69;5042174;28;20029;-76
2023/04/26 06:33:03;;;;;;;8.27;4.88;;;;;;;13.24;56.22;94061.56;5045174;28;20032;-77
2023/04/26 06:35:29;;;;;;;6.40;5.18;;;;;;;13.08;54.91;94062.78;5043135;28;20044;-76
2023/04/26 06:37:54;;;;;;;5.60;4.97;;;;;;;13.13;54.63;94064.88;5047315;28;20180;-77
2023/04/26 06:40:20;;;;;;;5.57;4.75;;;;;;;13.17;54.24;94070.94;5042421;28;20021;-77
2023/04/26 06:42:46;;;;;;;5.53;4.65;;;;;;;13.14;54.16;94058.13;5044285;28;20025;-77
2023/04/26 06:45:11;;;;;;;5.95;4.82;;;;;;;13.20;53.91;94060.97;5044651;28;20432;-77
2023/04/26 06:47:37;;;;;;;5.40;4.55;;;;;;;13.22;53.62;94062.03;5043673;28;20107;-77
2023/04/26 06:50:03;;;;;;;6.75;4.68;;;;;;;13.26;53.35;94075.66;5044962;28;20036;-77
2023/04/26 06:52:29;;;;;;;6.47;5.40;;;;;;;13.19;53.54;94071.25;5041587;28;20642;-78
2023/04/26 06:54:54;;;;;;;5.90;5.03;;;;;;;13.35;53.31;94063.75;5043672;28;20577;-78
2023/04/26 06:57:20;;;;;;;5.80;5.15;;;;;;;13.42;53.02;94072.44;5041715;28;20025;-78
2023/04/26 06:59:45;;;;;;;7.95;5.38;;;;;;;13.37;53.99;94070.34;5026283;28;20049;-78
2023/04/26 07:02:11;;;;;;;6.03;5.20;;;;;;;13.43;53.70;94067.66;5044116;28;20021;-77
2023/04/26 07:04:36;;;;;;;7.00;5.90;;;;;;;13.45;53.59;94068.69;5042177;28;20021;-77
2023/04/26 07:07:02;;;;;;;7.10;6.20;;;;;;;13.41;53.96;94067.38;5043195;28;20060;-77
2023/04/26 07:09:27;;;;;;;6.68;4.78;;;;;;;13.54;52.88;94074.13;5041512;28;20515;-77
2023/04/26 07:11:53;;;;;;;6.57;5.18;;;;;;;13.39;53.68;94067.09;5043432;28;20112;-77
2023/04/26 07:14:18;;;;;;;6.82;5.18;;;;;;;13.47;53.33;94077.25;5041142;28;20318;-78
2023/04/26 07:16:43;;;;;;;5.97;5.07;;;;;;;13.51;52.00;94064.03;5044470;28;20062;-77
2023/04/26 07:19:09;;;;;;;5.43;4.43;;;;;;;13.49;52.16;94068.53;5025313;28;20479;-76
2023/04/26 07:21:35;;;;;;;5.78;4.82;;;;;;;13.42;51.60;94072.44;5042584;28;20526;-77
2023/04/26 07:24:01;;;;;;;6.43;5.03;;;;;;;13.26;51.99;94072.91;5042961;28;20033;-77
2023/04/26 07:26:26;;;;;;;6.07;4.95;;;;;;;13.31;51.36;94083.28;5049497;28;20060;-77
2023/04/26 07:28:52;;;;;;;7.05;4.90;;;;;;;13.20;51.46;94078.28;5044675;28;20017;-77
2023/04/26 07:31:20;;;;;;;5.68;5.18;;;;;;;13.35;51.38;94078.31;5026620;28;20017;-78
2023/04/26 07:33:45;;;;;;;5.03;4.47;;;;;;;13.33;51.43;94077.28;5049941;28;20021;-77
2023/04/26 07:36:10;;;;;;;6.00;5.03;;;;;;;13.51;50.78;94079.84;5046453;28;20040;-78
2023/04/26 07:38:36;;;;;;;5.47;4.20;;;;;;;13.51;50.29;94086.13;5029496;28;20024;-77
2023/04/26 07:41:01;;;;;;;6.18;4.10;;;;;;;13.27;49.47;94088.97;5045872;28;20744;-77
2023/04/26 07:43:27;;;;;;;5.80;4.15;;;;;;;13.18;48.05;94085.50;5045323;28;20023;-76
2023/04/26 07:45:52;;;;;;;5.47;3.97;;;;;;;13.32;47.87;94090.31;5029447;28;20025;-77
2023/04/26 07:48:18;;;;;;;6.15;4.60;;;;;;;13.37;47.85;94086.91;5045077;28;20045;-77
2023/04/26 07:50:43;;;;;;;6.25;4.53;;;;;;;13.40;47.61;94085.94;5029375;28;20029;-78
2023/04/26 07:53:09;;;;;;;6.85;5.13;;;;;;;13.33;48.34;94091.06;5044513;28;20029;-77
2023/04/26 07:55:36;;;;;;;6.40;5.10;;;;;;;13.19;48.10;94081.50;5047224;28;20025;-75
2023/04/26 07:58:02;;;;;;;8.07;5.88;;;;;;;13.20;48.23;94081.06;5046342;28;20032;-78
2023/04/26 08:00:27;;;;;;;7.05;5.15;;;;;;;13.20;48.20;94085.81;5046824;28;20048;-78
2023/04/26 08:02:53;;;;;;;8.20;5.18;;;;;;;13.14;48.57;94087.72;5045674;28;20108;-76
2023/04/26 08:05:18;;;;;;;5.90;4.85;;;;;;;13.42;48.05;94094.53;5046258;28;20156;-78
2023/04/26 08:07:44;;;;;;;8.38;5.40;;;;;;;13.34;48.21;94089.84;5047035;28;20045;-78
2023/04/26 08:10:09;;;;;;;7.55;5.13;;;;;;;13.53;48.43;94082.88;5044427;28;20025;-77
2023/04/26 08:12:36;;;;;;;6.45;5.25;;;;;;;13.65;48.29;94092.91;5029220;28;20503;-78
2023/04/26 08:15:05;;;;;;;7.53;5.13;;;;;;;13.75;47.93;94085.25;5044139;28;20021;-78
2023/04/26 08:17:31;;;;;;;8.35;4.68;;;;;;;13.90;47.63;94082.47;5045743;28;20406;-77
2023/04/26 08:19:57;;;;;;;5.32;4.50;;;;;;;13.90;46.66;94076.97;5044860;28;20033;-77
2023/04/26 08:22:23;;;;;;;6.00;4.70;;;;;;;13.87;46.90;94088.94;5044843;28;20020;-77
2023/04/26 08:24:49;;;;;;;7.47;5.78;;;;;;;14.00;46.88;94078.38;5045210;28;20021;-77
2023/04/26 08:27:15;;;;;;;7.13;4.78;;;;;;;14.03;46.55;94088.44;5048495;28;20154;-76
2023/04/26 08:29:41;;;;;;;5.47;4.35;;;;;;;14.10;46.35;94079.75;5047594;28;20112;-77
2023/04/26 08:32:07;;;;;;;5.28;4.25;;;;;;;14.42;45.89;94091.03;5054143;28;20418;-78
2023/04/26 08:34:32;;;;;;;5.82;4.38;;;;;;;14.52;45.52;94082.16;5046015;28;20064;-79
2023/04/26 08:36:58;;;;;;;5.60;4.28;;;;;;;14.63;44.65;94080.78;5045267;28;20025;-77
2023/04/26 08:39:23;;;;;;;4.60;3.25;;;;;;;14.70;44.79;94083.13;5046283;28;20036;-76
2023/04/26 08:41:53;;;;;;;4.53;3.25;;;;;;;14.78;44.50;94082.19;5045561;28;20136;-77
2023/04/26 08:44:22;;;;;;;4.57;3.20;;;;;;;15.10;43.71;94079.56;5044364;28;20021;-78
2023/04/26 08:47:05;;;;;;;7.25;3.20;;;;;;;15.08;43.90;94084.81;5045054;28;20029;-78
2023/04/26 08:49:42;;;;;;;4.45;3.33;;;;;;;15.14;43.65;94071.81;5026970;28;20507;-78
2023/04/26 08:52:10;;;;;;;4.07;3.25;;;;;;;15.24;42.67;94083.47;5046580;28;20060;-78
2023/04/26 08:54:36;;;;;;;4.00;3.17;;;;;;;15.22;42.85;94077.66;5044277;28;20112;-78
2023/04/26 08:57:02;;;;;;;4.43;3.33;;;;;;;15.37;42.87;94076.31;5044146;28;20048;-79
2023/04/26 08:59:30;;;;;;;5.28;3.85;;;;;;;15.57;42.65;94094.88;5044855;28;20483;-79
2023/04/26 09:01:56;;;;;;;7.35;4.35;;;;;;;15.68;42.00;94087.94;5043530;28;20044;-78
2023/04/26 09:04:21;;;;;;;6.68;3.88;;;;;;;15.65;41.52;94089.69;5045601;28;20444;-79
2023/04/26 09:06:47;;;;;;;4.85;3.15;;;;;;;15.62;41.80;94091.44;5044650;28;20037;-78
2023/04/26 09:09:18;;;;;;;3.92;3.13;;;;;;;15.29;42.08;94093.84;5028082;28;20100;-78
2023/04/26 09:11:58;;;;;;;4.03;3.00;;;;;;;15.22;41.92;94097.03;5045002;28;20048;-78
2023/04/26 09:14:24;;;;;;;4.82;2.63;;;;;;;15.45;40.83;94098.03;5043612;28;20966;-77
2023/04/26 09:16:50;;;;;;;5.28;2.80;;;;;;;15.51;40.98;94088.53;5044170;28;20056;-77
2023/04/26 09:19:16;;;;;;;4.07;3.00;;;;;;;15.45;41.35;94084.19;5043285;28;20029;-77
2023/04/26 09:21:46;;;;;;;2.80;2.38;;;;;;;15.48;40.93;94094.28;5048543;28;20051;-77
2023/04/26 09:24:12;;;;;;;4.25;2.70;;;;;;;15.28;41.50;94095.09;5044792;28;20029;-77
2023/04/26 09:26:38;;;;;;;4.35;2.97;;;;;;;15.45;41.87;94100.81;5044507;28;20491;-78
2023/04/26 09:29:17;;;;;;;3.17;2.30;;;;;;;15.62;41.35;94101.72;5043095;28;20059;-78
2023/04/26 09:31:48;;;;;;;4.65;2.67;;;;;;;15.76;40.43;94098.09;5043404;28;20037;-77
2023/04/26 09:34:13;;;;;;;4.30;2.97;;;;;;;15.79;40.38;94097.13;5044353;28;20105;-78
2023/04/26 09:36:55;;;;;;;4.53;3.25;;;;;;;16.04;40.20;94097.56;5049640;28;20088;-77
2023/04/26 09:39:37;;;;;;;5.95;2.75;;;;;;;16.04;39.41;94095.53;5045507;28;20098;-77
2023/04/26 09:42:06;;;;;;;4.93;3.25;;;;;;;16.23;39.76;94097.94;5043103;28;20084;-78
2023/04/26 09:44:32;;;;;;;4.35;3.20;;;;;;;16.49;38.65;94095.84;5043545;28;20032;-77
2023/04/26 09:47:04;;;;;;;5.97;3.38;;;;;;;16.53;38.26;94098.41;5043728;28;20025;-78
2023/04/26 09:49:50;;;;;;;2.80;2.38;;;;;;;16.69;37.99;94090.16;5026157;28;20104;-78
2023/04/26 09:52:17;;;;;;;3.03;2.13;;;;;;;16.88;37.08;94089.75;5044255;28;20025;-77
2023/04/26 09:54:45;;;;;;;7.15;4.25;;;;;;;16.95;36.95;94089.28;5042003;28;20108;-78
2023/04/26 09:57:12;;;;;;;5.30;2.55;;;;;;;17.16;36.43;94084.31;5043411;28;20039;-77
2023/04/26 09:59:45;;;;;;;2.70;2.10;;;;;;;17.38;35.31;94091.97;5043253;28;20563;-76
2023/04/26 10:02:22;;;;;;;3.13;2.30;;;;;;;17.70;34.44;94081.38;5042836;28;20029;-76
2023/04/26 10:04:49;;;;;;;3.85;2.40;;;;;;;17.83;34.24;94092.78;5043908;28;20033;-78
2023/04/26 10:07:17;;;;;;;3.97;2.30;;;;;;;17.98;34.17;94081.44;5042053;28;20028;-78
2023/04/26 10:09:42;;;;;;;3.00;1.73;;;;;;;17.84;33.81;94082.44;5044240;28;20025;-78
2023/04/26 10:12:10;;;;;;;3.83;2.50;;;;;;;17.61;33.90;94087.19;5042345;28;20029;-77
2023/04/26 10:14:35;;;;;;;3.83;2.55;;;;;;;17.52;33.87;94088.19;5043336;28;20422;-77
2023/04/26 10:17:03;;;;;;;4.30;2.90;;;;;;;17.45;33.17;94080.34;5048322;28;20052;-77
2023/04/26 10:19:29;;;;;;;2.85;1.98;;;;;;;17.41;34.16;94075.03;5026232;28;20032;-77
2023/04/26 10:21:59;;;;;;;3.00;1.92;;;;;;;17.67;33.87;94074.81;5027139;28;20106;-77
2023/04/26 10:24:24;;;;;;;2.80;1.80;;;;;;;17.66;34.10;94075.31;5042285;28;20025;-78
2023/04/26 10:26:53;;;;;;;2.97;1.80;;;;;;;17.67;34.13;94074.81;5045352;28;20033;-78
2023/04/26 10:29:22;;;;;;;5.70;1.83;;;;;;;17.67;33.07;94077.59;5043097;28;20122;-78
2023/04/26 10:32:03;;;;;;;1.65;1.42;;;;;;;17.76;32.48;94080.16;5043102;28;20094;-77
2023/04/26 10:34:30;;;;;;;2.55;1.70;;;;;;;17.63;33.09;94079.09;5044637;28;20029;-78
2023/04/26 10:37:12;;;;;;;4.93;1.40;;;;;;;17.57;31.99;94081.88;5042334;28;20520;-77
2023/04/26 10:39:39;;;;;;;2.03;1.50;;;;;;;17.74;31.87;94079.16;5027088;28;20017;-78
2023/04/26 10:42:24;;;;;;;3.35;2.08;;;;;;;17.71;32.41;94085.66;5046243;28;20497;-77
2023/04/26 10:44:57;;;;;;;2.63;2.10;;;;;;;17.55;32.86;94076.06;5045543;28;20017;-77
2023/04/26 10:47:33;;;;;;;5.72;1.90;;;;;;;17.63;32.94;94076.31;5026290;28;20025;-78
2023/04/26 10:50:11;;;;;;;3.20;2.05;;;;;;;17.70;33.00;94073.81;5042297;28;20531;-78
2023/04/26 10:53:04;;;;;;;4.28;2.03;;;;;;;17.87;32.79;94064.75;5044053;28;20039;-78
2023/04/26 10:55:40;;;;;;;3.05;2.00;;;;;;;17.95;33.10;94066.53;5043246;28;20099;-77
2023/04/26 10:58:26;;;;;;;4.88;1.48;;;;;;;17.95;31.46;94069.31;5042739;28;20086;-79
2023/04/26 11:01:12;;;;;;;2.63;1.70;;;;;;;18.03;30.47;94063.97;5043388;28;20044;-79
2023/04/26 11:03:39;;;;;;;2.60;1.30;;;;;;;18.00;30.38;94073.31;5041711;28;20068;-77
2023/04/26 11:06:08;;;;;;;4.47;2.03;;;;;;;17.91;30.88;94062.47;5045623;28;20083;-77
2023/04/26 11:08:35;;;;;;;2.10;1.60;;;;;;;17.92;31.41;94064.75;5029878;28;20029;-79
2023/04/26 11:11:01;;;;;;;3.90;1.88;;;;;;;17.93;32.18;94066.25;5051670;28;20017;-78
2023/04/26 11:13:26;;;;;;;3.40;2.08;;;;;;;18.12;31.15;94068.50;5049003;28;20033;-79
2023/04/26 11:15:53;;;;;;;2.33;1.48;;;;;;;18.12;30.95;94068.50;5028932;28;20069;-78
2023/04/26 11:18:19;;;;;;;3.67;2.53;;;;;;;17.59;31.36;94067.47;5046848;28;20029;-79
2023/04/26 11:20:45;;;;;;;4.45;2.50;;;;;;;17.81;31.28;94078.63;5045237;28;20032;-79
2023/04/26 11:23:10;;;;;;;2.95;1.52;;;;;;;18.04;30.39;94062.72;5047440;28;20029;-79
2023/04/26 11:25:38;;;;;;;4.15;2.30;;;;;;;17.94;30.97;94061.44;5045356;28;20083;-79
2023/04/26 11:28:04;;;;;;;3.33;2.20;;;;;;;17.94;30.93;94061.44;5046577;28;20546;-78
2023/04/26 11:30:31;;;;;;;3.22;2.20;;;;;;;17.93;30.95;94069.03;5045842;28;20661;-78
2023/04/26 11:33:01;;;;;;;2.72;1.95;;;;;;;17.74;31.17;94073.59;5047210;28;20346;-78